createdAt,value
2019-04-25T00:00:24.700Z,101860.81
2019-04-25T00:01:03.336Z,101861.09
2019-04-25T00:01:44.657Z,101856.36
2019-04-25T00:02:34.478Z,101854.67
2019-04-25T00:03:12.211Z,101859.08
2019-04-25T00:03:48.422Z,101852.94
2019-04-25T00:04:24.533Z,101863.75
2019-04-25T00:05:01.335Z,101854.36
2019-04-25T00:05:38.765Z,101854.92
2019-04-25T00:06:15.924Z,101861.84
2019-04-25T00:06:52.238Z,101858.54
2019-04-25T00:07:28.639Z,101852.42
2019-04-25T00:08:05.196Z,101859.34
2019-04-25T00:08:43.074Z,101861.33
2019-04-25T00:09:21.914Z,101856.03
2019-04-25T00:09:58.087Z,101852.42
2019-04-25T00:10:34.125Z,101861.00
2019-04-25T00:11:11.674Z,101860.47
2019-04-25T00:11:49.004Z,101863.23
2019-04-25T00:12:25.127Z,101860.73
2019-04-25T00:13:03.587Z,101861.28
2019-04-25T00:13:39.737Z,101861.82
2019-04-25T00:14:16.093Z,101859.89
2019-04-25T00:14:52.210Z,101854.36
2019-04-25T00:15:29.474Z,101857.13
2019-04-25T00:16:06.464Z,101861.28
2019-04-25T00:16:45.132Z,101853.25
2019-04-25T00:17:21.502Z,101860.71
2019-04-25T00:17:57.548Z,101854.03
2019-04-25T00:18:33.665Z,101862.09
2019-04-25T00:19:09.805Z,101863.17
2019-04-25T00:19:46.438Z,101857.07
2019-04-25T00:20:24.777Z,101852.38
2019-04-25T00:21:02.447Z,101858.19
2019-04-25T00:21:40.911Z,101862.04
2019-04-25T00:22:22.332Z,101853.16
2019-04-25T00:23:01.916Z,101857.83
2019-04-25T00:23:39.369Z,101861.66
2019-04-25T00:24:23.818Z,101855.27
2019-04-25T00:25:15.099Z,101856.11
2019-04-25T00:25:52.807Z,101859.97
2019-04-25T00:26:33.489Z,101858.83
2019-04-25T00:27:08.990Z,101860.73
2019-04-25T00:27:46.019Z,101861.56
2019-04-25T00:28:22.320Z,101860.84
2019-04-25T00:28:58.422Z,101858.71
2019-04-25T00:29:34.679Z,101862.92
2019-04-25T00:30:11.329Z,101861.30
2019-04-25T00:30:48.067Z,101865.17
2019-04-25T00:31:26.040Z,101861.33
2019-04-25T00:32:02.235Z,101857.44
2019-04-25T00:32:38.345Z,101862.44
2019-04-25T00:33:14.472Z,101862.16
2019-04-25T00:33:52.493Z,101856.36
2019-04-25T00:34:28.405Z,101858.86
2019-04-25T00:35:05.798Z,101859.97
2019-04-25T00:35:43.525Z,101860.78
2019-04-25T00:36:19.751Z,101861.36
2019-04-25T00:36:55.831Z,101858.02
2019-04-25T00:37:32.309Z,101859.42
2019-04-25T00:38:08.465Z,101861.66
2019-04-25T00:38:46.568Z,101861.11
2019-04-25T00:39:22.519Z,101858.05
2019-04-25T00:39:58.597Z,101863.88
2019-04-25T00:40:35.026Z,101858.34
2019-04-25T00:41:11.607Z,101858.61
2019-04-25T00:41:47.793Z,101859.79
2019-04-25T00:42:23.888Z,101854.45
2019-04-25T00:43:01.529Z,101857.50
2019-04-25T00:43:37.722Z,101855.58
2019-04-25T00:44:13.825Z,101856.66
2019-04-25T00:44:51.278Z,101853.89
2019-04-25T00:45:27.613Z,101863.58
2019-04-25T00:46:03.758Z,101860.81
2019-04-25T00:46:39.803Z,101860.84
2019-04-25T00:47:15.925Z,101857.23
2019-04-25T00:47:52.897Z,101863.61
2019-04-25T00:48:29.038Z,101866.71
2019-04-25T00:49:05.061Z,101860.59
2019-04-25T00:49:43.839Z,101863.07
2019-04-25T00:50:19.710Z,101857.02
2019-04-25T00:50:55.757Z,101856.95
2019-04-25T00:51:31.874Z,101858.61
2019-04-25T00:52:07.925Z,101858.61
2019-04-25T00:52:44.866Z,101855.64
2019-04-25T00:53:21.255Z,101853.38
2019-04-25T00:53:57.315Z,101855.84
2019-04-25T00:54:33.360Z,101854.19
2019-04-25T00:55:09.668Z,101850.58
2019-04-25T00:55:46.440Z,101856.09
2019-04-25T00:56:22.527Z,101851.09
2019-04-25T00:56:58.663Z,101853.31
2019-04-25T00:57:35.241Z,101851.09
2019-04-25T00:58:12.932Z,101854.70
2019-04-25T00:59:02.672Z,101853.59
2019-04-25T00:59:41.848Z,101852.47
2019-04-25T01:00:35.721Z,101851.03
2019-04-25T01:01:25.291Z,101849.92
2019-04-25T01:02:11.878Z,101849.02
2019-04-25T01:02:49.532Z,101845.95
2019-04-25T01:03:33.002Z,101842.62
2019-04-25T01:04:09.055Z,101847.06
2019-04-25T01:04:45.245Z,101847.03
2019-04-25T01:05:21.683Z,101848.75
2019-04-25T01:05:57.720Z,101845.98
2019-04-25T01:06:33.755Z,101843.22
2019-04-25T01:07:09.795Z,101845.41
2019-04-25T01:07:45.866Z,101847.64
2019-04-25T01:08:22.050Z,101844.60
2019-04-25T01:08:59.057Z,101847.06
2019-04-25T01:09:35.262Z,101847.34
2019-04-25T01:10:13.374Z,101843.46
2019-04-25T01:10:50.524Z,101845.36
2019-04-25T01:11:27.198Z,101846.16
2019-04-25T01:12:04.113Z,101843.40
2019-04-25T01:12:41.708Z,101845.33
2019-04-25T01:13:17.823Z,101849.20
2019-04-25T01:13:54.454Z,101838.34
2019-04-25T01:14:31.933Z,101843.34
2019-04-25T01:15:09.671Z,101847.45
2019-04-25T01:15:46.403Z,101841.34
2019-04-25T01:16:22.409Z,101842.70
2019-04-25T01:16:58.524Z,101846.85
2019-04-25T01:17:34.542Z,101844.89
2019-04-25T01:18:12.209Z,101844.33
2019-04-25T01:18:48.745Z,101841.52
2019-04-25T01:19:24.868Z,101844.29
2019-04-25T01:20:00.898Z,101847.56
2019-04-25T01:20:37.016Z,101837.30
2019-04-25T01:21:14.140Z,101842.84
2019-04-25T01:21:51.290Z,101843.34
2019-04-25T01:22:27.441Z,101848.03
2019-04-25T01:23:03.811Z,101846.62
2019-04-25T01:23:39.892Z,101845.77
2019-04-25T01:24:15.980Z,101845.47
2019-04-25T01:24:52.020Z,101842.94
2019-04-25T01:25:38.545Z,101849.04
2019-04-25T01:26:06.419Z,101852.34
2019-04-25T01:26:43.856Z,101847.89
2019-04-25T01:27:20.003Z,101852.84
2019-04-25T01:27:56.027Z,101844.83
2019-04-25T01:28:33.565Z,101850.63
2019-04-25T01:29:10.482Z,101847.55
2019-04-25T01:29:46.684Z,101845.33
2019-04-25T01:30:24.361Z,101846.40
2019-04-25T01:31:00.760Z,101851.89
2019-04-25T01:31:36.779Z,101848.28
2019-04-25T01:32:14.452Z,101849.40
2019-04-25T01:32:50.546Z,101847.44
2019-04-25T01:33:26.969Z,101847.98
2019-04-25T01:34:04.660Z,101847.67
2019-04-25T01:34:44.169Z,101848.82
2019-04-25T01:35:27.605Z,101852.62
2019-04-25T01:36:07.824Z,101854.00
2019-04-25T01:36:51.235Z,101850.31
2019-04-25T01:37:28.900Z,101848.28
2019-04-25T01:38:09.496Z,101849.93
2019-04-25T01:38:56.147Z,101851.62
2019-04-25T01:39:48.946Z,101848.81
2019-04-25T01:40:35.560Z,101853.42
2019-04-25T01:41:31.308Z,101847.42
2019-04-25T01:42:15.012Z,101849.60
2019-04-25T01:43:04.732Z,101850.23
2019-04-25T01:43:57.241Z,101846.39
2019-04-25T01:44:34.055Z,101848.00
2019-04-25T01:45:10.475Z,101844.95
2019-04-25T01:45:48.079Z,101847.63
2019-04-25T01:46:25.589Z,101846.62
2019-04-25T01:47:01.617Z,101849.16
2019-04-25T01:47:37.643Z,101847.56
2019-04-25T01:48:13.786Z,101845.11
2019-04-25T01:48:50.170Z,101850.67
2019-04-25T01:49:26.192Z,101847.06
2019-04-25T01:50:03.788Z,101843.77
2019-04-25T01:50:40.205Z,101845.64
2019-04-25T01:51:16.272Z,101841.50
2019-04-25T01:51:54.067Z,101849.25
2019-04-25T01:52:30.052Z,101846.48
2019-04-25T01:53:06.083Z,101849.78
2019-04-25T01:53:42.126Z,101840.66
2019-04-25T01:54:18.166Z,101842.30
2019-04-25T01:54:55.663Z,101847.28
2019-04-25T01:55:33.518Z,101843.68
2019-04-25T01:56:09.618Z,101840.59
2019-04-25T01:56:45.780Z,101843.36
2019-04-25T01:57:21.813Z,101839.45
2019-04-25T01:57:57.839Z,101840.83
2019-04-25T01:58:33.940Z,101841.67
2019-04-25T01:59:09.954Z,101840.30
2019-04-25T01:59:46.157Z,101841.40
2019-04-25T02:00:33.278Z,101844.16
2019-04-25T02:01:09.547Z,101837.75
2019-04-25T02:01:45.834Z,101842.95
2019-04-25T02:02:23.665Z,101840.23
2019-04-25T02:02:59.745Z,101842.16
2019-04-25T02:03:35.864Z,101841.84
2019-04-25T02:04:13.234Z,101844.12
2019-04-25T02:04:49.355Z,101843.81
2019-04-25T02:05:25.459Z,101841.62
2019-04-25T02:06:01.745Z,101843.53
2019-04-25T02:06:37.760Z,101849.33
2019-04-25T02:07:13.871Z,101845.45
2019-04-25T02:07:51.377Z,101842.43
2019-04-25T02:08:27.556Z,101843.53
2019-04-25T02:09:05.902Z,101844.08
2019-04-25T02:09:43.660Z,101847.14
2019-04-25T02:10:20.029Z,101849.86
2019-04-25T02:10:58.141Z,101842.41
2019-04-25T02:11:48.608Z,101842.69
2019-04-25T02:12:27.325Z,101842.95
2019-04-25T02:13:07.980Z,101838.41
2019-04-25T02:13:43.789Z,101842.28
2019-04-25T02:14:19.638Z,101839.34
2019-04-25T02:14:56.625Z,101845.05
2019-04-25T02:15:33.498Z,101840.48
2019-04-25T02:16:09.860Z,101845.84
2019-04-25T02:16:45.966Z,101846.42
2019-04-25T02:17:24.066Z,101850.07
2019-04-25T02:18:00.456Z,101850.66
2019-04-25T02:18:37.138Z,101848.97
2019-04-25T02:19:14.499Z,101853.69
2019-04-25T02:19:52.002Z,101852.08
2019-04-25T02:20:28.173Z,101852.08
2019-04-25T02:21:04.538Z,101852.08
2019-04-25T02:21:40.584Z,101853.42
2019-04-25T02:22:16.611Z,101854.00
2019-04-25T02:22:54.472Z,101849.86
2019-04-25T02:23:30.411Z,101854.27
2019-04-25T02:24:06.515Z,101851.52
2019-04-25T02:24:43.700Z,101853.46
2019-04-25T02:25:19.753Z,101855.38
2019-04-25T02:26:08.951Z,101856.45
2019-04-25T02:26:34.077Z,101855.92
2019-04-25T02:27:10.286Z,101849.81
2019-04-25T02:27:46.308Z,101857.52
2019-04-25T02:28:24.039Z,101856.39
2019-04-25T02:29:00.576Z,101855.02
2019-04-25T02:29:36.634Z,101855.02
2019-04-25T02:30:15.527Z,101849.19
2019-04-25T02:30:54.727Z,101852.79
2019-04-25T02:31:29.473Z,101855.55
2019-04-25T02:32:09.104Z,101853.33
2019-04-25T02:32:44.278Z,101853.06
2019-04-25T02:33:20.409Z,101851.41
2019-04-25T02:33:58.804Z,101853.91
2019-04-25T02:34:34.859Z,101849.23
2019-04-25T02:35:11.261Z,101855.29
2019-04-25T02:35:47.355Z,101853.38
2019-04-25T02:36:24.683Z,101853.95
2019-04-25T02:37:04.225Z,101845.30
2019-04-25T02:37:38.570Z,101856.45
2019-04-25T02:38:16.910Z,101852.84
2019-04-25T02:38:54.159Z,101853.69
2019-04-25T02:39:30.228Z,101857.30
2019-04-25T02:40:08.450Z,101855.61
2019-04-25T02:40:45.623Z,101860.06
2019-04-25T02:41:21.803Z,101856.41
2019-04-25T02:42:01.045Z,101858.09
2019-04-25T02:42:36.905Z,101858.62
2019-04-25T02:43:14.210Z,101853.38
2019-04-25T02:43:50.482Z,101856.39
2019-04-25T02:44:26.718Z,101856.09
2019-04-25T02:45:08.226Z,101858.59
2019-04-25T02:45:44.322Z,101860.55
2019-04-25T02:46:37.416Z,101856.93
2019-04-25T02:47:15.085Z,101859.43
2019-04-25T02:48:08.721Z,101857.05
2019-04-25T02:49:04.145Z,101864.84
2019-04-25T02:49:41.577Z,101864.37
2019-04-25T02:50:35.987Z,101860.45
2019-04-25T02:51:16.584Z,101857.17
2019-04-25T02:51:59.254Z,101857.07
2019-04-25T02:52:38.997Z,101851.59
2019-04-25T02:53:36.308Z,101856.33
2019-04-25T02:54:09.481Z,101857.17
2019-04-25T02:54:45.494Z,101854.88
2019-04-25T02:55:31.125Z,101855.20
2019-04-25T02:55:59.751Z,101859.67
2019-04-25T02:56:38.871Z,101855.58
2019-04-25T02:57:14.612Z,101862.52
2019-04-25T02:57:50.794Z,101856.47
2019-04-25T02:58:26.968Z,101856.20
2019-04-25T02:59:06.501Z,101858.44
2019-04-25T02:59:40.820Z,101857.33
2019-04-25T03:00:20.140Z,101864.23
2019-04-25T03:01:08.002Z,101853.49
2019-04-25T03:01:36.273Z,101857.33
2019-04-25T03:02:12.332Z,101860.61
2019-04-25T03:02:48.363Z,101852.91
2019-04-25T03:03:24.642Z,101858.48
2019-04-25T03:04:00.992Z,101855.41
2019-04-25T03:04:37.016Z,101857.94
2019-04-25T03:05:14.295Z,101853.23
2019-04-25T03:05:50.580Z,101862.14
2019-04-25T03:06:26.630Z,101855.77
2019-04-25T03:07:07.408Z,101855.83
2019-04-25T03:07:40.592Z,101853.06
2019-04-25T03:08:16.710Z,101853.65
2019-04-25T03:08:54.277Z,101861.39
2019-04-25T03:09:30.546Z,101856.98
2019-04-25T03:10:09.811Z,101860.37
2019-04-25T03:10:46.091Z,101859.80
2019-04-25T03:11:24.306Z,101858.68
2019-04-25T03:11:59.989Z,101858.46
2019-04-25T03:12:36.845Z,101851.56
2019-04-25T03:13:14.854Z,101857.97
2019-04-25T03:13:50.849Z,101854.36
2019-04-25T03:14:26.895Z,101859.05
2019-04-25T03:15:06.354Z,101856.02
2019-04-25T03:15:40.805Z,101856.86
2019-04-25T03:16:16.817Z,101856.59
2019-04-25T03:16:54.317Z,101859.63
2019-04-25T03:17:30.572Z,101858.24
2019-04-25T03:18:11.166Z,101865.15
2019-04-25T03:18:47.155Z,101859.41
2019-04-25T03:19:34.189Z,101856.11
2019-04-25T03:20:14.848Z,101861.63
2019-04-25T03:20:54.714Z,101856.59
2019-04-25T03:21:32.036Z,101856.33
2019-04-25T03:22:11.730Z,101860.20
2019-04-25T03:22:47.529Z,101860.84
2019-04-25T03:23:35.456Z,101863.11
2019-04-25T03:24:16.373Z,101860.38
2019-04-25T03:24:50.256Z,101865.82
2019-04-25T03:25:26.289Z,101859.00
2019-04-25T03:26:04.543Z,101868.15
2019-04-25T03:26:40.803Z,101867.91
2019-04-25T03:27:16.968Z,101866.55
2019-04-25T03:27:54.113Z,101868.50
2019-04-25T03:28:30.803Z,101867.73
2019-04-25T03:29:07.294Z,101869.08
2019-04-25T03:29:45.502Z,101867.17
2019-04-25T03:30:22.057Z,101868.86
2019-04-25T03:31:01.395Z,101864.45
2019-04-25T03:31:36.003Z,101868.38
2019-04-25T03:32:16.459Z,101868.67
2019-04-25T03:32:51.622Z,101870.91
2019-04-25T03:33:27.565Z,101872.52
2019-04-25T03:34:07.939Z,101865.95
2019-04-25T03:34:41.342Z,101862.39
2019-04-25T03:35:17.360Z,101858.52
2019-04-25T03:35:54.780Z,101865.42
2019-04-25T03:36:30.820Z,101873.52
2019-04-25T03:37:07.665Z,101862.20
2019-04-25T03:37:43.765Z,101866.63
2019-04-25T03:38:19.767Z,101866.39
2019-04-25T03:38:55.900Z,101867.23
2019-04-25T03:39:33.501Z,101865.86
2019-04-25T03:40:09.729Z,101873.61
2019-04-25T03:40:45.745Z,101867.55
2019-04-25T03:41:21.781Z,101873.39
2019-04-25T03:41:58.798Z,101870.34
2019-04-25T03:42:34.817Z,101871.47
2019-04-25T03:43:10.822Z,101870.13
2019-04-25T03:43:46.848Z,101875.39
2019-04-25T03:44:23.713Z,101874.84
2019-04-25T03:45:01.467Z,101869.86
2019-04-25T03:45:37.638Z,101871.51
2019-04-25T03:46:14.239Z,101874.89
2019-04-25T03:46:50.392Z,101870.74
2019-04-25T03:47:26.437Z,101876.89
2019-04-25T03:48:03.874Z,101870.29
2019-04-25T03:48:40.210Z,101875.31
2019-04-25T03:49:16.236Z,101873.94
2019-04-25T03:49:53.499Z,101881.47
2019-04-25T03:50:30.872Z,101878.70
2019-04-25T03:51:07.903Z,101874.83
2019-04-25T03:51:44.128Z,101873.17
2019-04-25T03:52:20.149Z,101876.78
2019-04-25T03:52:56.188Z,101880.43
2019-04-25T03:53:33.704Z,101877.36
2019-04-25T03:54:10.599Z,101873.52
2019-04-25T03:54:46.639Z,101877.13
2019-04-25T03:55:24.078Z,101877.39
2019-04-25T03:56:00.247Z,101876.59
2019-04-25T03:56:36.274Z,101878.55
2019-04-25T03:57:14.333Z,101880.51
2019-04-25T03:57:51.309Z,101881.92
2019-04-25T03:58:27.325Z,101880.00
2019-04-25T03:59:05.859Z,101880.58
2019-04-25T03:59:43.557Z,101880.85
2019-04-25T04:00:19.806Z,101882.54
2019-04-25T04:00:55.979Z,101884.47
2019-04-25T04:01:32.005Z,101877.58
2019-04-25T04:02:09.056Z,101883.16
2019-04-25T04:02:45.148Z,101885.95
2019-04-25T04:03:21.200Z,101888.19
2019-04-25T04:03:57.245Z,101885.45
2019-04-25T04:04:33.591Z,101884.64
2019-04-25T04:05:09.676Z,101886.06
2019-04-25T04:05:45.691Z,101888.32
2019-04-25T04:06:21.801Z,101887.78
2019-04-25T04:06:57.839Z,101883.67
2019-04-25T04:07:33.873Z,101885.39
2019-04-25T04:08:11.918Z,101883.73
2019-04-25T04:08:47.955Z,101884.58
2019-04-25T04:09:24.227Z,101882.95
2019-04-25T04:10:00.325Z,101884.64
2019-04-25T04:10:36.365Z,101885.76
2019-04-25T04:11:14.146Z,101888.86
2019-04-25T04:11:50.225Z,101884.44
2019-04-25T04:12:26.259Z,101883.36
2019-04-25T04:13:02.287Z,101886.97
2019-04-25T04:13:38.321Z,101884.77
2019-04-25T04:14:15.639Z,101887.56
2019-04-25T04:14:53.630Z,101889.80
2019-04-25T04:15:29.781Z,101885.38
2019-04-25T04:16:06.524Z,101891.21
2019-04-25T04:16:44.412Z,101889.55
2019-04-25T04:17:40.466Z,101884.89
2019-04-25T04:18:36.032Z,101891.55
2019-04-25T04:19:13.121Z,101888.44
2019-04-25T04:19:54.228Z,101883.38
2019-04-25T04:20:40.664Z,101890.37
2019-04-25T04:21:21.358Z,101887.33
2019-04-25T04:21:58.414Z,101893.17
2019-04-25T04:22:53.331Z,101892.91
2019-04-25T04:23:34.041Z,101885.85
2019-04-25T04:24:14.985Z,101888.05
2019-04-25T04:24:53.866Z,101886.45
2019-04-25T04:25:29.972Z,101893.98
2019-04-25T04:26:06.256Z,101895.39
2019-04-25T04:26:43.121Z,101888.53
2019-04-25T04:27:19.235Z,101887.14
2019-04-25T04:27:55.333Z,101874.87
2019-04-25T04:28:33.719Z,101891.63
2019-04-25T04:29:10.107Z,101895.55
2019-04-25T04:29:46.219Z,101889.19
2019-04-25T04:30:22.219Z,101895.27
2019-04-25T04:30:58.296Z,101889.25
2019-04-25T04:31:34.341Z,101894.81
2019-04-25T04:32:10.633Z,101894.84
2019-04-25T04:32:46.688Z,101890.14
2019-04-25T04:33:30.246Z,101889.90
2019-04-25T04:34:00.502Z,101895.44
2019-04-25T04:34:36.548Z,101892.16
2019-04-25T04:35:14.761Z,101892.14
2019-04-25T04:35:51.248Z,101889.70
2019-04-25T04:36:27.283Z,101893.31
2019-04-25T04:37:03.771Z,101887.52
2019-04-25T04:37:39.876Z,101888.66
2019-04-25T04:38:16.469Z,101890.34
2019-04-25T04:38:54.205Z,101888.95
2019-04-25T04:39:30.370Z,101894.24
2019-04-25T04:40:07.932Z,101894.82
2019-04-25T04:40:44.266Z,101892.62
2019-04-25T04:41:20.287Z,101888.47
2019-04-25T04:41:56.477Z,101892.95
2019-04-25T04:42:33.709Z,101889.09
2019-04-25T04:43:09.739Z,101886.61
2019-04-25T04:43:45.797Z,101882.23
2019-04-25T04:44:21.899Z,101893.06
2019-04-25T04:44:57.927Z,101891.96
2019-04-25T04:45:34.519Z,101888.39
2019-04-25T04:46:10.602Z,101892.03
2019-04-25T04:46:48.250Z,101892.02
2019-04-25T04:47:24.282Z,101893.42
2019-04-25T04:48:00.367Z,101888.73
2019-04-25T04:48:36.395Z,101886.23
2019-04-25T04:49:14.178Z,101886.80
2019-04-25T04:49:50.206Z,101883.50
2019-04-25T04:50:26.255Z,101887.13
2019-04-25T04:51:03.402Z,101892.96
2019-04-25T04:51:39.499Z,101887.97
2019-04-25T04:52:15.866Z,101886.59
2019-04-25T04:52:53.996Z,101890.48
2019-04-25T04:53:30.182Z,101883.57
2019-04-25T04:54:07.167Z,101885.30
2019-04-25T04:54:43.931Z,101889.20
2019-04-25T04:55:20.073Z,101892.27
2019-04-25T04:55:56.168Z,101887.28
2019-04-25T04:56:34.040Z,101893.41
2019-04-25T04:57:25.717Z,101887.30
2019-04-25T04:57:47.666Z,101888.98
2019-04-25T04:58:25.122Z,101894.00
2019-04-25T04:59:01.207Z,101893.44
2019-04-25T04:59:37.239Z,101895.14
2019-04-25T05:00:14.558Z,101895.97
2019-04-25T05:00:51.118Z,101894.88
2019-04-25T05:01:28.951Z,101892.94
2019-04-25T05:02:14.628Z,101898.22
2019-04-25T05:03:00.552Z,101895.75
2019-04-25T05:03:38.210Z,101898.50
2019-04-25T05:04:16.268Z,101894.09
2019-04-25T05:05:06.593Z,101898.81
2019-04-25T05:06:00.399Z,101896.30
2019-04-25T05:06:41.014Z,101898.54
2019-04-25T05:07:25.334Z,101893.00
2019-04-25T05:08:09.006Z,101894.95
2019-04-25T05:08:46.710Z,101892.17
2019-04-25T05:09:24.354Z,101896.09
2019-04-25T05:10:00.389Z,101898.86
2019-04-25T05:10:36.443Z,101889.70
2019-04-25T05:11:15.226Z,101896.38
2019-04-25T05:11:50.251Z,101893.88
2019-04-25T05:12:26.264Z,101895.57
2019-04-25T05:13:02.314Z,101894.73
2019-04-25T05:13:38.325Z,101891.42
2019-04-25T05:14:15.351Z,101895.31
2019-04-25T05:14:53.291Z,101887.25
2019-04-25T05:15:29.689Z,101893.07
2019-04-25T05:16:05.730Z,101901.16
2019-04-25T05:16:43.236Z,101891.98
2019-04-25T05:17:19.699Z,101891.41
2019-04-25T05:17:55.753Z,101893.61
2019-04-25T05:18:37.085Z,101890.84
2019-04-25T05:19:09.489Z,101891.68
2019-04-25T05:19:45.513Z,101892.78
2019-04-25T05:20:22.204Z,101885.80
2019-04-25T05:20:58.269Z,101897.21
2019-04-25T05:21:34.300Z,101894.69
2019-04-25T05:22:10.353Z,101890.77
2019-04-25T05:22:46.372Z,101890.72
2019-04-25T05:23:23.439Z,101892.95
2019-04-25T05:24:01.124Z,101890.73
2019-04-25T05:24:37.171Z,101896.00
2019-04-25T05:25:15.291Z,101890.67
2019-04-25T05:25:50.934Z,101890.08
2019-04-25T05:26:27.047Z,101893.94
2019-04-25T05:27:03.864Z,101894.47
2019-04-25T05:27:56.778Z,101890.23
2019-04-25T05:28:18.515Z,101897.13
2019-04-25T05:28:55.296Z,101895.69
2019-04-25T05:29:31.490Z,101884.76
2019-04-25T05:30:09.614Z,101893.88
2019-04-25T05:30:47.323Z,101892.17
2019-04-25T05:31:27.462Z,101892.64
2019-04-25T05:32:04.253Z,101892.58
2019-04-25T05:32:40.462Z,101886.34
2019-04-25T05:33:19.101Z,101896.84
2019-04-25T05:33:54.250Z,101886.98
2019-04-25T05:34:30.287Z,101891.94
2019-04-25T05:35:06.791Z,101892.38
2019-04-25T05:35:44.057Z,101890.61
2019-04-25T05:36:21.823Z,101885.48
2019-04-25T05:36:57.918Z,101887.95
2019-04-25T05:37:33.969Z,101893.99
2019-04-25T05:38:10.035Z,101888.61
2019-04-25T05:38:46.061Z,101893.25
2019-04-25T05:39:23.729Z,101889.20
2019-04-25T05:39:59.829Z,101893.78
2019-04-25T05:40:37.512Z,101892.82
2019-04-25T05:41:18.215Z,101895.46
2019-04-25T05:41:58.566Z,101894.19
2019-04-25T05:42:51.317Z,101902.72
2019-04-25T05:43:28.935Z,101900.59
2019-04-25T05:44:05.249Z,101899.27
2019-04-25T05:44:41.261Z,101900.53
2019-04-25T05:45:19.843Z,101899.27
2019-04-25T05:45:55.973Z,101897.75
2019-04-25T05:46:32.012Z,101898.09
2019-04-25T05:47:08.032Z,101907.41
2019-04-25T05:47:44.336Z,101898.08
2019-04-25T05:48:21.089Z,101900.72
2019-04-25T05:48:57.276Z,101900.84
2019-04-25T05:49:34.272Z,101901.47
2019-04-25T05:50:10.377Z,101894.02
2019-04-25T05:50:46.390Z,101899.16
2019-04-25T05:51:23.953Z,101904.30
2019-04-25T05:52:00.186Z,101901.88
2019-04-25T05:52:36.341Z,101910.38
2019-04-25T05:53:14.098Z,101903.78
2019-04-25T05:53:51.175Z,101912.37
2019-04-25T05:54:27.254Z,101906.62
2019-04-25T05:55:03.981Z,101903.16
2019-04-25T05:55:40.083Z,101904.13
2019-04-25T05:56:16.516Z,101912.30
2019-04-25T05:56:53.761Z,101908.73
2019-04-25T05:57:29.847Z,101908.25
2019-04-25T05:58:05.868Z,101903.28
2019-04-25T05:58:43.862Z,101907.89
2019-04-25T05:59:19.619Z,101909.12
2019-04-25T05:59:55.716Z,101911.42
2019-04-25T06:00:31.748Z,101907.81
2019-04-25T06:01:07.806Z,101908.38
2019-04-25T06:01:43.836Z,101906.64
2019-04-25T06:02:19.858Z,101905.02
2019-04-25T06:02:55.978Z,101908.70
2019-04-25T06:03:33.822Z,101907.17
2019-04-25T06:04:09.734Z,101901.30
2019-04-25T06:04:45.769Z,101907.06
2019-04-25T06:05:23.429Z,101900.00
2019-04-25T06:05:59.608Z,101908.09
2019-04-25T06:06:36.812Z,101906.53
2019-04-25T06:07:14.479Z,101906.55
2019-04-25T06:07:50.602Z,101908.58
2019-04-25T06:08:28.273Z,101905.05
2019-04-25T06:09:24.067Z,101908.02
2019-04-25T06:10:18.104Z,101905.82
2019-04-25T06:10:58.819Z,101905.65
2019-04-25T06:11:35.895Z,101910.63
2019-04-25T06:12:28.407Z,101911.03
2019-04-25T06:13:18.152Z,101911.30
2019-04-25T06:14:05.608Z,101905.21
2019-04-25T06:14:43.299Z,101908.81
2019-04-25T06:15:21.680Z,101912.44
2019-04-25T06:16:00.022Z,101910.73
2019-04-25T06:16:37.483Z,101912.41
2019-04-25T06:17:32.131Z,101905.45
2019-04-25T06:18:16.215Z,101907.27
2019-04-25T06:19:11.297Z,101907.61
2019-04-25T06:19:43.436Z,101911.00
2019-04-25T06:20:21.526Z,101913.86
2019-04-25T06:20:57.914Z,101911.05
2019-04-25T06:21:33.961Z,101904.06
2019-04-25T06:22:18.439Z,101907.28
2019-04-25T06:22:59.779Z,101904.20
2019-04-25T06:23:54.416Z,101909.41
2019-04-25T06:24:33.895Z,101908.64
2019-04-25T06:25:13.768Z,101909.38
2019-04-25T06:25:49.401Z,101903.45
2019-04-25T06:26:34.127Z,101906.02
2019-04-25T06:27:16.891Z,101915.83
2019-04-25T06:27:59.220Z,101906.33
2019-04-25T06:28:35.403Z,101913.41
2019-04-25T06:29:11.422Z,101908.09
2019-04-25T06:29:58.094Z,101903.05
2019-04-25T06:30:28.366Z,101903.05
2019-04-25T06:31:09.920Z,101909.66
2019-04-25T06:31:43.803Z,101908.27
2019-04-25T06:32:21.385Z,101912.50
2019-04-25T06:32:57.491Z,101910.31
2019-04-25T06:33:33.958Z,101910.31
2019-04-25T06:34:10.116Z,101912.59
2019-04-25T06:34:46.192Z,101903.79
2019-04-25T06:35:24.489Z,101901.79
2019-04-25T06:36:00.021Z,101898.84
2019-04-25T06:36:36.060Z,101898.84
2019-04-25T06:37:13.763Z,101898.61
2019-04-25T06:37:49.893Z,101902.61
2019-04-25T06:38:27.244Z,101904.28
2019-04-25T06:39:04.164Z,101905.34
2019-04-25T06:39:41.776Z,101912.96
2019-04-25T06:40:17.890Z,101909.63
2019-04-25T06:40:53.915Z,101907.14
2019-04-25T06:41:29.926Z,101911.95
2019-04-25T06:42:05.947Z,101909.37
2019-04-25T06:42:43.422Z,101913.09
2019-04-25T06:43:19.649Z,101911.65
2019-04-25T06:43:57.301Z,101910.23
2019-04-25T06:44:50.893Z,101915.28
2019-04-25T06:45:28.916Z,101912.33
2019-04-25T06:46:15.308Z,101916.19
2019-04-25T06:46:53.529Z,101919.11
2019-04-25T06:47:36.986Z,101915.30
2019-04-25T06:48:25.014Z,101911.96
2019-04-25T06:49:03.531Z,101916.08
2019-04-25T06:49:41.290Z,101912.64
2019-04-25T06:50:17.356Z,101916.44
2019-04-25T06:50:53.786Z,101920.27
2019-04-25T06:51:49.516Z,101922.53
2019-04-25T06:52:29.475Z,101918.45
2019-04-25T06:53:03.505Z,101916.35
2019-04-25T06:53:41.278Z,101920.64
2019-04-25T06:54:17.321Z,101919.41
2019-04-25T06:54:53.367Z,101919.09
2019-04-25T06:55:30.183Z,101922.47
2019-04-25T06:56:06.426Z,101921.88
2019-04-25T06:56:43.470Z,101925.44
2019-04-25T06:57:19.645Z,101922.87
2019-04-25T06:57:55.872Z,101922.30
2019-04-25T06:58:32.234Z,101925.59
2019-04-25T06:59:09.931Z,101927.23
2019-04-25T06:59:45.961Z,101925.20
2019-04-25T07:00:24.261Z,101928.63
2019-04-25T07:01:01.059Z,101924.58
2019-04-25T07:01:38.313Z,101926.13
2019-04-25T07:02:14.767Z,101921.28
2019-04-25T07:02:50.816Z,101919.61
2019-04-25T07:03:27.131Z,101924.39
2019-04-25T07:04:04.061Z,101924.22
2019-04-25T07:04:41.196Z,101919.45
2019-04-25T07:05:26.616Z,101920.34
2019-04-25T07:05:55.291Z,101914.50
2019-04-25T07:06:31.416Z,101922.30
2019-04-25T07:07:12.382Z,101926.17
2019-04-25T07:07:45.481Z,101925.37
2019-04-25T07:08:25.428Z,101926.05
2019-04-25T07:09:00.336Z,101918.80
2019-04-25T07:09:36.685Z,101919.50
2019-04-25T07:10:13.352Z,101927.59
2019-04-25T07:10:49.484Z,101920.09
2019-04-25T07:11:26.787Z,101924.32
2019-04-25T07:12:03.555Z,101924.75
2019-04-25T07:12:39.798Z,101925.06